DLH28R ELLX-EDDN
Flight info
| Callsign | DLH28R |
|---|---|
| Flight time | N/A |
| Altitude | 33000 |
| Route | ASMOX Y891 ROPUV L607 UBIDU L984 BOMBI Z723 RITUP/N0398F230 Z723 KOMIB T193 ERTES T194 DODAS DODAS1T |
| Aircraft | B733/M-SDE2E3FHIRW/S |
Departure
| Time | 2026-04-27 22:08 |
|---|---|
| Airport | Luxembourg-Findel International Airport (ELLX) |
Arrival
| Time | N/A |
|---|---|
| Airport | Nuremberg Airport (EDDN) |
| Time | Latitude | Longitude | Altitude | Speed | Heading |
|---|---|---|---|---|---|
| 2026-04-27 21:37 | 49.63389 | 6.21792 | 1235 ft | 0 kts | 330° |
| 2026-04-27 21:54 | 49.63382 | 6.21798 | 1234 ft | 0 kts | 330° |
| 2026-04-27 21:55 | 49.63373 | 6.21807 | 1233 ft | 2 kts | 320° |
| 2026-04-27 21:55 | 49.63363 | 6.21823 | 1232 ft | 2 kts | 306° |
| 2026-04-27 21:55 | 49.63355 | 6.21843 | 1231 ft | 2 kts | 290° |
| 2026-04-27 21:55 | 49.63351 | 6.21865 | 1230 ft | 2 kts | 276° |
| 2026-04-27 21:56 | 49.63351 | 6.21889 | 1229 ft | 1 kts | 261° |
| 2026-04-27 21:56 | 49.63353 | 6.21904 | 1228 ft | 0 kts | 256° |
| 2026-04-27 21:59 | 49.63348 | 6.21873 | 1229 ft | 5 kts | 256° |
| 2026-04-27 21:59 | 49.63336 | 6.21831 | 1230 ft | 3 kts | 241° |
| 2026-04-27 21:59 | 49.63319 | 6.21808 | 1230 ft | 4 kts | 197° |
| 2026-04-27 21:59 | 49.63275 | 6.21829 | 1227 ft | 9 kts | 147° |
| 2026-04-27 22:00 | 49.63207 | 6.21893 | 1222 ft | 4 kts | 150° |
| 2026-04-27 22:00 | 49.63161 | 6.21911 | 1219 ft | 9 kts | 206° |
| 2026-04-27 22:00 | 49.63129 | 6.21827 | 1219 ft | 8 kts | 245° |
| 2026-04-27 22:00 | 49.63105 | 6.21741 | 1222 ft | 8 kts | 247° |
| 2026-04-27 22:01 | 49.63083 | 6.21661 | 1224 ft | 7 kts | 246° |
| 2026-04-27 22:01 | 49.63065 | 6.21600 | 1225 ft | 5 kts | 244° |
| 2026-04-27 22:01 | 49.63046 | 6.21542 | 1225 ft | 7 kts | 244° |
| 2026-04-27 22:01 | 49.63015 | 6.21441 | 1226 ft | 12 kts | 244° |
| 2026-04-27 22:02 | 49.62971 | 6.21301 | 1230 ft | 16 kts | 244° |
| 2026-04-27 22:02 | 49.62917 | 6.21127 | 1234 ft | 19 kts | 245° |
| 2026-04-27 22:02 | 49.62852 | 6.20917 | 1235 ft | 22 kts | 244° |
| 2026-04-27 22:02 | 49.62769 | 6.20707 | 1232 ft | 24 kts | 224° |
| 2026-04-27 22:03 | 49.62635 | 6.20530 | 1226 ft | 27 kts | 228° |
| 2026-04-27 22:03 | 49.62527 | 6.20335 | 1221 ft | 24 kts | 230° |
| 2026-04-27 22:03 | 49.62428 | 6.20096 | 1212 ft | 28 kts | 240° |
| 2026-04-27 22:03 | 49.62367 | 6.19929 | 1205 ft | 18 kts | 240° |
| 2026-04-27 22:04 | 49.62295 | 6.19737 | 1194 ft | 23 kts | 240° |
| 2026-04-27 22:04 | 49.62204 | 6.19492 | 1181 ft | 29 kts | 240° |
| 2026-04-27 22:04 | 49.62118 | 6.19259 | 1171 ft | 12 kts | 240° |
| 2026-04-27 22:04 | 49.62067 | 6.19119 | 1164 ft | 17 kts | 240° |
| 2026-04-27 22:05 | 49.62000 | 6.18941 | 1159 ft | 21 kts | 239° |
| 2026-04-27 22:05 | 49.61941 | 6.18804 | 1153 ft | 14 kts | 224° |
| 2026-04-27 22:05 | 49.61887 | 6.18737 | 1149 ft | 11 kts | 218° |
| 2026-04-27 22:05 | 49.61840 | 6.18705 | 1147 ft | 6 kts | 187° |
| 2026-04-27 22:06 | 49.61796 | 6.18729 | 1147 ft | 6 kts | 149° |
| 2026-04-27 22:06 | 49.61767 | 6.18777 | 1148 ft | 5 kts | 102° |
| 2026-04-27 22:06 | 49.61774 | 6.18811 | 1150 ft | 0 kts | 60° |
| 2026-04-27 22:06 | 49.61780 | 6.18826 | 1150 ft | 9 kts | 60° |
| 2026-04-27 22:07 | 49.61916 | 6.19187 | 1164 ft | 70 kts | 60° |
| 2026-04-27 22:07 | 49.62259 | 6.20106 | 1209 ft | 124 kts | 60° |
| 2026-04-27 22:07 | 49.62764 | 6.21449 | 1296 ft | 160 kts | 60° |
| 2026-04-27 22:07 | 49.63286 | 6.22960 | 1761 ft | 167 kts | 64° |
| 2026-04-27 22:08 | 49.63844 | 6.24699 | 1994 ft | 191 kts | 61° |
| 2026-04-27 22:08 | 49.64505 | 6.26432 | 2722 ft | 186 kts | 60° |
| 2026-04-27 22:08 | 49.65165 | 6.28106 | 3325 ft | 183 kts | 60° |
| 2026-04-27 22:08 | 49.65830 | 6.29778 | 3831 ft | 185 kts | 60° |
| 2026-04-27 22:09 | 49.66496 | 6.31457 | 4307 ft | 188 kts | 60° |
| 2026-04-27 22:09 | 49.67182 | 6.33201 | 4781 ft | 191 kts | 60° |
| 2026-04-27 22:09 | 49.67868 | 6.34960 | 5246 ft | 194 kts | 60° |
| 2026-04-27 22:09 | 49.68554 | 6.36737 | 5707 ft | 197 kts | 60° |
| 2026-04-27 22:10 | 49.69262 | 6.38574 | 6181 ft | 200 kts | 59° |
| 2026-04-27 22:10 | 49.69644 | 6.39568 | 6423 ft | 201 kts | 60° |